sensor_id;sensor_type;location;lat;lon;timestamp;P1;durP1;ratioP1;P2;durP2;ratioP2
69203;SDS011;56317;27.658;85.326;2023-04-06T00:01:19;206.60;;;91.28;;
69203;SDS011;56317;27.658;85.326;2023-04-06T00:03:46;187.32;;;89.30;;
69203;SDS011;56317;27.658;85.326;2023-04-06T00:06:13;200.38;;;91.82;;
69203;SDS011;56317;27.658;85.326;2023-04-06T00:08:40;196.25;;;94.90;;
69203;SDS011;56317;27.658;85.326;2023-04-06T00:11:08;200.30;;;97.18;;
69203;SDS011;56317;27.658;85.326;2023-04-06T00:13:35;183.15;;;96.30;;
69203;SDS011;56317;27.658;85.326;2023-04-06T00:16:04;205.35;;;102.57;;
69203;SDS011;56317;27.658;85.326;2023-04-06T00:18:32;213.00;;;102.63;;
69203;SDS011;56317;27.658;85.326;2023-04-06T00:20:59;198.52;;;99.63;;
69203;SDS011;56317;27.658;85.326;2023-04-06T00:23:26;186.20;;;96.10;;
69203;SDS011;56317;27.658;85.326;2023-04-06T00:25:54;188.32;;;98.05;;
69203;SDS011;56317;27.658;85.326;2023-04-06T00:28:21;174.75;;;94.75;;
69203;SDS011;56317;27.658;85.326;2023-04-06T00:30:51;196.13;;;100.32;;
69203;SDS011;56317;27.658;85.326;2023-04-06T00:33:21;215.05;;;100.13;;
69203;SDS011;56317;27.658;85.326;2023-04-06T00:35:48;203.23;;;99.80;;
69203;SDS011;56317;27.658;85.326;2023-04-06T00:38:16;215.93;;;99.60;;
69203;SDS011;56317;27.658;85.326;2023-04-06T00:40:44;178.50;;;94.10;;
69203;SDS011;56317;27.658;85.326;2023-04-06T00:43:11;195.07;;;97.13;;
69203;SDS011;56317;27.658;85.326;2023-04-06T00:45:39;176.63;;;92.57;;
69203;SDS011;56317;27.658;85.326;2023-04-06T00:48:07;172.52;;;94.50;;
69203;SDS011;56317;27.658;85.326;2023-04-06T00:50:35;196.15;;;102.53;;
69203;SDS011;56317;27.658;85.326;2023-04-06T00:53:02;192.07;;;98.72;;
69203;SDS011;56317;27.658;85.326;2023-04-06T00:55:29;195.70;;;104.65;;
69203;SDS011;56317;27.658;85.326;2023-04-06T00:57:59;203.95;;;102.90;;
69203;SDS011;56317;27.658;85.326;2023-04-06T01:00:26;198.45;;;103.53;;
69203;SDS011;56317;27.658;85.326;2023-04-06T01:02:54;206.60;;;107.30;;
69203;SDS011;56317;27.658;85.326;2023-04-06T01:05:21;317.50;;;175.93;;
69203;SDS011;56317;27.658;85.326;2023-04-06T01:07:48;286.63;;;152.15;;
69203;SDS011;56317;27.658;85.326;2023-04-06T01:10:22;425.15;;;230.10;;
69203;SDS011;56317;27.658;85.326;2023-04-06T01:12:50;332.05;;;180.48;;
69203;SDS011;56317;27.658;85.326;2023-04-06T01:15:18;284.30;;;157.10;;
69203;SDS011;56317;27.658;85.326;2023-04-06T01:17:46;262.92;;;140.52;;
69203;SDS011;56317;27.658;85.326;2023-04-06T01:20:13;244.55;;;129.38;;
69203;SDS011;56317;27.658;85.326;2023-04-06T01:22:41;182.65;;;99.63;;
69203;SDS011;56317;27.658;85.326;2023-04-06T01:25:08;150.57;;;86.97;;
69203;SDS011;56317;27.658;85.326;2023-04-06T01:27:36;143.60;;;80.63;;
69203;SDS011;56317;27.658;85.326;2023-04-06T01:30:04;139.05;;;81.43;;
69203;SDS011;56317;27.658;85.326;2023-04-06T01:32:31;199.93;;;114.93;;
69203;SDS011;56317;27.658;85.326;2023-04-06T01:34:59;200.55;;;118.10;;
69203;SDS011;56317;27.658;85.326;2023-04-06T01:37:26;285.02;;;150.60;;
69203;SDS011;56317;27.658;85.326;2023-04-06T01:39:55;294.85;;;158.15;;
69203;SDS011;56317;27.658;85.326;2023-04-06T01:42:23;205.45;;;110.32;;
69203;SDS011;56317;27.658;85.326;2023-04-06T01:44:51;223.70;;;122.53;;
69203;SDS011;56317;27.658;85.326;2023-04-06T01:47:18;201.38;;;104.05;;
69203;SDS011;56317;27.658;85.326;2023-04-06T01:49:46;142.93;;;77.13;;
69203;SDS011;56317;27.658;85.326;2023-04-06T01:52:13;148.20;;;82.25;;
69203;SDS011;56317;27.658;85.326;2023-04-06T01:54:41;135.45;;;83.70;;
69203;SDS011;56317;27.658;85.326;2023-04-06T01:57:09;141.20;;;80.32;;
69203;SDS011;56317;27.658;85.326;2023-04-06T01:59:37;145.13;;;81.60;;
69203;SDS011;56317;27.658;85.326;2023-04-06T02:02:04;148.35;;;83.63;;
69203;SDS011;56317;27.658;85.326;2023-04-06T02:04:31;138.73;;;78.40;;
69203;SDS011;56317;27.658;85.326;2023-04-06T02:06:58;121.75;;;65.47;;
69203;SDS011;56317;27.658;85.326;2023-04-06T02:09:28;133.95;;;66.45;;
69203;SDS011;56317;27.658;85.326;2023-04-06T02:11:56;105.07;;;60.55;;
69203;SDS011;56317;27.658;85.326;2023-04-06T02:14:25;101.32;;;59.05;;
69203;SDS011;56317;27.658;85.326;2023-04-06T02:16:52;99.47;;;58.90;;
69203;SDS011;56317;27.658;85.326;2023-04-06T02:19:20;103.97;;;59.20;;
69203;SDS011;56317;27.658;85.326;2023-04-06T02:21:47;108.85;;;64.00;;
69203;SDS011;56317;27.658;85.326;2023-04-06T02:24:15;122.72;;;62.85;;
69203;SDS011;56317;27.658;85.326;2023-04-06T02:26:42;126.85;;;66.13;;
69203;SDS011;56317;27.658;85.326;2023-04-06T02:29:09;111.40;;;63.95;;
69203;SDS011;56317;27.658;85.326;2023-04-06T02:31:37;101.45;;;59.40;;
69203;SDS011;56317;27.658;85.326;2023-04-06T02:34:04;113.65;;;64.20;;
69203;SDS011;56317;27.658;85.326;2023-04-06T02:36:32;115.43;;;64.93;;
69203;SDS011;56317;27.658;85.326;2023-04-06T02:39:00;107.72;;;58.65;;
69203;SDS011;56317;27.658;85.326;2023-04-06T02:41:27;118.68;;;63.88;;
69203;SDS011;56317;27.658;85.326;2023-04-06T02:43:55;107.43;;;62.80;;
69203;SDS011;56317;27.658;85.326;2023-04-06T02:46:22;108.97;;;58.15;;
69203;SDS011;56317;27.658;85.326;2023-04-06T02:48:49;98.55;;;54.17;;
69203;SDS011;56317;27.658;85.326;2023-04-06T02:51:17;91.85;;;54.78;;
69203;SDS011;56317;27.658;85.326;2023-04-06T02:53:44;105.60;;;58.55;;
69203;SDS011;56317;27.658;85.326;2023-04-06T02:56:11;110.45;;;58.80;;
69203;SDS011;56317;27.658;85.326;2023-04-06T02:58:41;118.38;;;61.58;;
69203;SDS011;56317;27.658;85.326;2023-04-06T03:01:08;115.63;;;61.67;;
69203;SDS011;56317;27.658;85.326;2023-04-06T03:03:36;118.50;;;65.30;;
69203;SDS011;56317;27.658;85.326;2023-04-06T03:06:03;111.38;;;62.15;;
69203;SDS011;56317;27.658;85.326;2023-04-06T03:08:31;117.78;;;58.40;;
69203;SDS011;56317;27.658;85.326;2023-04-06T03:10:58;99.70;;;54.65;;
69203;SDS011;56317;27.658;85.326;2023-04-06T03:13:25;91.95;;;51.28;;
69203;SDS011;56317;27.658;85.326;2023-04-06T03:15:53;98.28;;;50.75;;
69203;SDS011;56317;27.658;85.326;2023-04-06T03:18:24;93.53;;;50.10;;
69203;SDS011;56317;27.658;85.326;2023-04-06T03:20:51;89.53;;;49.08;;
69203;SDS011;56317;27.658;85.326;2023-04-06T03:23:21;92.00;;;49.53;;
69203;SDS011;56317;27.658;85.326;2023-04-06T03:25:51;89.82;;;49.08;;
69203;SDS011;56317;27.658;85.326;2023-04-06T03:28:19;98.18;;;51.05;;
69203;SDS011;56317;27.658;85.326;2023-04-06T03:30:46;90.32;;;51.72;;
69203;SDS011;56317;27.658;85.326;2023-04-06T03:33:14;87.43;;;52.10;;
69203;SDS011;56317;27.658;85.326;2023-04-06T03:35:42;84.35;;;49.65;;
69203;SDS011;56317;27.658;85.326;2023-04-06T03:38:09;90.25;;;49.97;;
69203;SDS011;56317;27.658;85.326;2023-04-06T03:40:36;74.22;;;46.65;;
69203;SDS011;56317;27.658;85.326;2023-04-06T03:43:04;79.85;;;48.92;;
69203;SDS011;56317;27.658;85.326;2023-04-06T03:45:31;88.28;;;49.13;;
69203;SDS011;56317;27.658;85.326;2023-04-06T03:47:58;83.68;;;49.22;;
69203;SDS011;56317;27.658;85.326;2023-04-06T03:50:26;87.35;;;48.95;;
69203;SDS011;56317;27.658;85.326;2023-04-06T03:52:53;84.78;;;48.55;;
69203;SDS011;56317;27.658;85.326;2023-04-06T03:55:21;84.30;;;50.03;;
69203;SDS011;56317;27.658;85.326;2023-04-06T03:57:48;86.22;;;50.83;;
69203;SDS011;56317;27.658;85.326;2023-04-06T04:00:15;93.38;;;50.25;;
69203;SDS011;56317;27.658;85.326;2023-04-06T04:02:43;101.70;;;52.50;;
69203;SDS011;56317;27.658;85.326;2023-04-06T04:05:11;102.20;;;49.45;;
69203;SDS011;56317;27.658;85.326;2023-04-06T04:07:38;85.57;;;45.97;;
69203;SDS011;56317;27.658;85.326;2023-04-06T04:10:05;83.65;;;49.72;;
69203;SDS011;56317;27.658;85.326;2023-04-06T04:12:33;93.38;;;49.80;;
69203;SDS011;56317;27.658;85.326;2023-04-06T04:15:00;87.25;;;52.35;;
69203;SDS011;56317;27.658;85.326;2023-04-06T04:17:28;73.25;;;45.55;;
69203;SDS011;56317;27.658;85.326;2023-04-06T04:19:56;74.68;;;45.40;;
69203;SDS011;56317;27.658;85.326;2023-04-06T04:22:23;88.75;;;48.47;;
69203;SDS011;56317;27.658;85.326;2023-04-06T04:24:50;75.82;;;45.15;;
69203;SDS011;56317;27.658;85.326;2023-04-06T04:27:18;81.57;;;49.08;;
69203;SDS011;56317;27.658;85.326;2023-04-06T04:29:46;92.22;;;51.55;;
69203;SDS011;56317;27.658;85.326;2023-04-06T04:32:14;75.20;;;43.67;;
69203;SDS011;56317;27.658;85.326;2023-04-06T04:34:42;68.60;;;40.90;;
69203;SDS011;56317;27.658;85.326;2023-04-06T04:37:09;67.05;;;38.85;;
69203;SDS011;56317;27.658;85.326;2023-04-06T04:39:36;57.50;;;34.28;;
69203;SDS011;56317;27.658;85.326;2023-04-06T04:42:04;60.58;;;31.00;;
69203;SDS011;56317;27.658;85.326;2023-04-06T04:44:31;59.30;;;35.00;;
69203;SDS011;56317;27.658;85.326;2023-04-06T04:46:58;60.10;;;34.88;;
69203;SDS011;56317;27.658;85.326;2023-04-06T04:49:27;46.58;;;28.20;;
69203;SDS011;56317;27.658;85.326;2023-04-06T04:51:54;57.25;;;29.98;;
69203;SDS011;56317;27.658;85.326;2023-04-06T04:54:22;50.85;;;27.80;;
69203;SDS011;56317;27.658;85.326;2023-04-06T04:56:49;47.03;;;25.88;;
69203;SDS011;56317;27.658;85.326;2023-04-06T04:59:17;45.83;;;25.48;;
69203;SDS011;56317;27.658;85.326;2023-04-06T05:01:44;39.92;;;22.83;;
69203;SDS011;56317;27.658;85.326;2023-04-06T05:04:12;40.00;;;23.48;;
69203;SDS011;56317;27.658;85.326;2023-04-06T05:06:39;29.85;;;15.32;;
69203;SDS011;56317;27.658;85.326;2023-04-06T05:09:06;28.02;;;15.60;;
69203;SDS011;56317;27.658;85.326;2023-04-06T05:11:34;37.42;;;17.55;;
69203;SDS011;56317;27.658;85.326;2023-04-06T05:14:01;38.42;;;17.33;;
69203;SDS011;56317;27.658;85.326;2023-04-06T05:16:28;42.25;;;19.83;;
69203;SDS011;56317;27.658;85.326;2023-04-06T05:18:56;32.92;;;17.13;;
69203;SDS011;56317;27.658;85.326;2023-04-06T05:21:23;32.35;;;15.55;;
69203;SDS011;56317;27.658;85.326;2023-04-06T05:23:52;36.08;;;16.08;;
69203;SDS011;56317;27.658;85.326;2023-04-06T05:26:19;30.33;;;16.08;;
69203;SDS011;56317;27.658;85.326;2023-04-06T05:28:47;39.10;;;16.67;;
69203;SDS011;56317;27.658;85.326;2023-04-06T05:31:14;27.63;;;13.02;;
69203;SDS011;56317;27.658;85.326;2023-04-06T05:33:41;34.08;;;13.43;;
69203;SDS011;56317;27.658;85.326;2023-04-06T05:36:09;34.95;;;14.70;;
69203;SDS011;56317;27.658;85.326;2023-04-06T05:38:37;29.83;;;13.57;;
69203;SDS011;56317;27.658;85.326;2023-04-06T05:41:04;29.38;;;13.60;;
69203;SDS011;56317;27.658;85.326;2023-04-06T05:43:32;36.80;;;13.63;;
69203;SDS011;56317;27.658;85.326;2023-04-06T05:45:59;27.50;;;14.98;;
69203;SDS011;56317;27.658;85.326;2023-04-06T05:48:27;25.60;;;13.98;;
69203;SDS011;56317;27.658;85.326;2023-04-06T05:50:54;32.08;;;17.67;;
69203;SDS011;56317;27.658;85.326;2023-04-06T05:53:21;37.30;;;19.83;;
69203;SDS011;56317;27.658;85.326;2023-04-06T05:55:51;26.92;;;15.10;;
69203;SDS011;56317;27.658;85.326;2023-04-06T05:58:19;41.13;;;17.73;;
69203;SDS011;56317;27.658;85.326;2023-04-06T06:00:46;39.97;;;15.30;;
69203;SDS011;56317;27.658;85.326;2023-04-06T06:03:13;36.95;;;15.40;;
69203;SDS011;56317;27.658;85.326;2023-04-06T06:05:41;27.85;;;14.18;;
69203;SDS011;56317;27.658;85.326;2023-04-06T06:08:08;30.55;;;14.48;;
69203;SDS011;56317;27.658;85.326;2023-04-06T06:10:37;29.13;;;13.88;;
69203;SDS011;56317;27.658;85.326;2023-04-06T06:13:05;33.13;;;15.38;;
69203;SDS011;56317;27.658;85.326;2023-04-06T06:15:33;29.30;;;12.88;;
69203;SDS011;56317;27.658;85.326;2023-04-06T06:18:01;27.10;;;13.07;;
69203;SDS011;56317;27.658;85.326;2023-04-06T06:20:28;26.38;;;12.95;;
69203;SDS011;56317;27.658;85.326;2023-04-06T06:22:55;25.40;;;12.32;;
69203;SDS011;56317;27.658;85.326;2023-04-06T06:25:23;25.73;;;12.25;;
69203;SDS011;56317;27.658;85.326;2023-04-06T06:27:50;24.83;;;12.20;;
69203;SDS011;56317;27.658;85.326;2023-04-06T06:30:18;27.08;;;12.23;;
69203;SDS011;56317;27.658;85.326;2023-04-06T06:32:45;26.17;;;11.32;;
69203;SDS011;56317;27.658;85.326;2023-04-06T06:35:12;21.80;;;11.48;;
69203;SDS011;56317;27.658;85.326;2023-04-06T06:37:40;29.20;;;11.73;;
69203;SDS011;56317;27.658;85.326;2023-04-06T06:40:09;29.75;;;11.07;;
69203;SDS011;56317;27.658;85.326;2023-04-06T06:42:38;23.02;;;11.18;;
69203;SDS011;56317;27.658;85.326;2023-04-06T06:45:06;19.25;;;10.45;;
69203;SDS011;56317;27.658;85.326;2023-04-06T06:47:34;20.55;;;11.55;;
69203;SDS011;56317;27.658;85.326;2023-04-06T06:50:02;28.55;;;11.75;;
69203;SDS011;56317;27.658;85.326;2023-04-06T06:52:30;30.67;;;11.85;;
69203;SDS011;56317;27.658;85.326;2023-04-06T06:54:57;31.55;;;11.60;;
69203;SDS011;56317;27.658;85.326;2023-04-06T06:57:25;21.38;;;10.70;;
69203;SDS011;56317;27.658;85.326;2023-04-06T06:59:52;23.60;;;10.80;;
69203;SDS011;56317;27.658;85.326;2023-04-06T07:02:20;23.55;;;9.93;;
69203;SDS011;56317;27.658;85.326;2023-04-06T07:04:47;28.73;;;11.05;;
69203;SDS011;56317;27.658;85.326;2023-04-06T07:07:15;23.88;;;11.27;;
69203;SDS011;56317;27.658;85.326;2023-04-06T07:09:42;25.85;;;10.82;;
69203;SDS011;56317;27.658;85.326;2023-04-06T07:12:10;25.90;;;11.40;;
69203;SDS011;56317;27.658;85.326;2023-04-06T07:14:37;21.98;;;9.30;;
69203;SDS011;56317;27.658;85.326;2023-04-06T07:17:05;25.27;;;10.38;;
69203;SDS011;56317;27.658;85.326;2023-04-06T07:19:32;28.48;;;10.82;;
69203;SDS011;56317;27.658;85.326;2023-04-06T07:22:00;29.90;;;11.43;;
69203;SDS011;56317;27.658;85.326;2023-04-06T07:24:29;32.80;;;12.18;;
69203;SDS011;56317;27.658;85.326;2023-04-06T07:26:57;23.08;;;11.43;;
69203;SDS011;56317;27.658;85.326;2023-04-06T07:29:26;23.55;;;10.90;;
69203;SDS011;56317;27.658;85.326;2023-04-06T07:31:54;20.80;;;10.00;;
69203;SDS011;56317;27.658;85.326;2023-04-06T07:34:21;20.98;;;9.77;;
69203;SDS011;56317;27.658;85.326;2023-04-06T07:36:49;20.52;;;10.75;;
69203;SDS011;56317;27.658;85.326;2023-04-06T07:39:18;24.50;;;10.07;;
69203;SDS011;56317;27.658;85.326;2023-04-06T07:41:46;21.52;;;11.02;;
69203;SDS011;56317;27.658;85.326;2023-04-06T07:44:13;20.65;;;10.80;;
69203;SDS011;56317;27.658;85.326;2023-04-06T07:46:40;18.92;;;10.05;;
69203;SDS011;56317;27.658;85.326;2023-04-06T07:49:08;28.48;;;10.85;;
69203;SDS011;56317;27.658;85.326;2023-04-06T07:51:36;22.60;;;10.38;;
69203;SDS011;56317;27.658;85.326;2023-04-06T07:54:04;27.75;;;10.90;;
69203;SDS011;56317;27.658;85.326;2023-04-06T07:56:31;24.10;;;10.30;;
69203;SDS011;56317;27.658;85.326;2023-04-06T07:59:02;28.25;;;12.25;;
69203;SDS011;56317;27.658;85.326;2023-04-06T08:01:29;21.88;;;10.13;;
69203;SDS011;56317;27.658;85.326;2023-04-06T08:03:56;25.23;;;11.38;;
69203;SDS011;56317;27.658;85.326;2023-04-06T08:06:24;29.40;;;10.10;;
69203;SDS011;56317;27.658;85.326;2023-04-06T08:08:52;26.83;;;10.82;;
69203;SDS011;56317;27.658;85.326;2023-04-06T08:11:19;31.10;;;11.40;;
69203;SDS011;56317;27.658;85.326;2023-04-06T08:13:47;29.25;;;11.38;;
69203;SDS011;56317;27.658;85.326;2023-04-06T08:16:14;24.67;;;11.32;;
69203;SDS011;56317;27.658;85.326;2023-04-06T08:18:41;23.27;;;12.05;;
69203;SDS011;56317;27.658;85.326;2023-04-06T08:21:09;31.73;;;11.10;;
69203;SDS011;56317;27.658;85.326;2023-04-06T08:23:36;25.10;;;10.85;;
69203;SDS011;56317;27.658;85.326;2023-04-06T08:26:04;19.02;;;9.98;;
69203;SDS011;56317;27.658;85.326;2023-04-06T08:28:31;26.52;;;10.88;;
69203;SDS011;56317;27.658;85.326;2023-04-06T08:31:03;21.20;;;11.07;;
69203;SDS011;56317;27.658;85.326;2023-04-06T08:33:34;25.33;;;12.82;;
69203;SDS011;56317;27.658;85.326;2023-04-06T08:36:14;28.40;;;11.50;;
69203;SDS011;56317;27.658;85.326;2023-04-06T08:38:43;29.52;;;12.52;;
69203;SDS011;56317;27.658;85.326;2023-04-06T08:41:11;33.20;;;12.02;;
69203;SDS011;56317;27.658;85.326;2023-04-06T08:46:13;30.40;;;13.43;;
69203;SDS011;56317;27.658;85.326;2023-04-06T08:48:42;38.35;;;19.48;;
69203;SDS011;56317;27.658;85.326;2023-04-06T08:51:09;36.42;;;22.10;;
69203;SDS011;56317;27.658;85.326;2023-04-06T08:53:37;39.42;;;21.13;;
69203;SDS011;56317;27.658;85.326;2023-04-06T08:56:05;39.55;;;20.77;;
69203;SDS011;56317;27.658;85.326;2023-04-06T08:58:35;32.92;;;20.55;;
69203;SDS011;56317;27.658;85.326;2023-04-06T09:01:08;34.58;;;20.60;;
69203;SDS011;56317;27.658;85.326;2023-04-06T09:03:38;34.85;;;22.40;;
69203;SDS011;56317;27.658;85.326;2023-04-06T09:06:06;31.00;;;21.35;;
69203;SDS011;56317;27.658;85.326;2023-04-06T09:08:34;40.53;;;22.58;;
69203;SDS011;56317;27.658;85.326;2023-04-06T09:11:06;36.60;;;21.55;;
69203;SDS011;56317;27.658;85.326;2023-04-06T09:16:38;46.28;;;24.35;;
69203;SDS011;56317;27.658;85.326;2023-04-06T09:19:09;39.33;;;25.33;;
69203;SDS011;56317;27.658;85.326;2023-04-06T09:21:37;41.83;;;27.15;;
69203;SDS011;56317;27.658;85.326;2023-04-06T09:24:06;40.20;;;27.52;;
69203;SDS011;56317;27.658;85.326;2023-04-06T09:26:44;42.63;;;27.80;;
69203;SDS011;56317;27.658;85.326;2023-04-06T09:29:22;42.78;;;27.77;;
69203;SDS011;56317;27.658;85.326;2023-04-06T09:31:52;44.38;;;28.65;;
69203;SDS011;56317;27.658;85.326;2023-04-06T09:34:28;44.10;;;30.85;;
69203;SDS011;56317;27.658;85.326;2023-04-06T09:36:56;44.03;;;29.27;;
69203;SDS011;56317;27.658;85.326;2023-04-06T09:39:24;43.58;;;28.67;;
69203;SDS011;56317;27.658;85.326;2023-04-06T09:41:52;45.85;;;29.42;;
69203;SDS011;56317;27.658;85.326;2023-04-06T09:44:21;44.10;;;29.73;;
69203;SDS011;56317;27.658;85.326;2023-04-06T09:46:50;43.15;;;29.35;;
69203;SDS011;56317;27.658;85.326;2023-04-06T09:49:19;41.10;;;28.67;;
69203;SDS011;56317;27.658;85.326;2023-04-06T09:51:57;47.58;;;28.05;;
69203;SDS011;56317;27.658;85.326;2023-04-06T09:54:28;47.67;;;28.65;;
69203;SDS011;56317;27.658;85.326;2023-04-06T09:56:59;45.88;;;28.60;;
69203;SDS011;56317;27.658;85.326;2023-04-06T10:02:08;43.05;;;28.33;;
69203;SDS011;56317;27.658;85.326;2023-04-06T10:04:52;46.05;;;29.70;;
69203;SDS011;56317;27.658;85.326;2023-04-06T10:07:31;43.53;;;28.83;;
69203;SDS011;56317;27.658;85.326;2023-04-06T10:10:00;37.38;;;27.35;;
69203;SDS011;56317;27.658;85.326;2023-04-06T10:12:29;48.10;;;27.60;;
69203;SDS011;56317;27.658;85.326;2023-04-06T10:14:57;40.58;;;26.40;;
69203;SDS011;56317;27.658;85.326;2023-04-06T10:17:27;42.20;;;28.65;;
69203;SDS011;56317;27.658;85.326;2023-04-06T10:19:59;39.88;;;27.88;;
69203;SDS011;56317;27.658;85.326;2023-04-06T10:22:45;46.95;;;28.15;;
69203;SDS011;56317;27.658;85.326;2023-04-06T10:25:30;40.40;;;26.33;;
69203;SDS011;56317;27.658;85.326;2023-04-06T10:28:09;43.83;;;28.08;;
69203;SDS011;56317;27.658;85.326;2023-04-06T10:30:42;48.40;;;28.13;;
69203;SDS011;56317;27.658;85.326;2023-04-06T10:33:15;51.03;;;29.90;;
69203;SDS011;56317;27.658;85.326;2023-04-06T10:35:44;45.00;;;27.75;;
69203;SDS011;56317;27.658;85.326;2023-04-06T10:38:12;40.30;;;25.88;;
69203;SDS011;56317;27.658;85.326;2023-04-06T10:40:40;41.33;;;27.40;;
69203;SDS011;56317;27.658;85.326;2023-04-06T10:43:18;46.30;;;27.58;;
69203;SDS011;56317;27.658;85.326;2023-04-06T10:45:56;44.15;;;26.85;;
69203;SDS011;56317;27.658;85.326;2023-04-06T10:48:35;41.63;;;27.92;;
69203;SDS011;56317;27.658;85.326;2023-04-06T10:51:08;39.08;;;26.35;;
69203;SDS011;56317;27.658;85.326;2023-04-06T10:53:37;39.85;;;26.70;;
69203;SDS011;56317;27.658;85.326;2023-04-06T10:56:11;48.10;;;28.43;;
69203;SDS011;56317;27.658;85.326;2023-04-06T10:58:46;41.85;;;26.92;;
69203;SDS011;56317;27.658;85.326;2023-04-06T11:01:18;45.25;;;29.30;;
69203;SDS011;56317;27.658;85.326;2023-04-06T11:03:47;48.17;;;29.23;;
69203;SDS011;56317;27.658;85.326;2023-04-06T11:06:28;52.92;;;28.08;;
69203;SDS011;56317;27.658;85.326;2023-04-06T11:08:59;44.30;;;28.35;;
69203;SDS011;56317;27.658;85.326;2023-04-06T11:11:27;48.15;;;27.63;;
69203;SDS011;56317;27.658;85.326;2023-04-06T11:14:00;47.13;;;28.60;;
69203;SDS011;56317;27.658;85.326;2023-04-06T11:16:31;52.53;;;29.67;;
69203;SDS011;56317;27.658;85.326;2023-04-06T11:19:00;51.55;;;29.23;;
69203;SDS011;56317;27.658;85.326;2023-04-06T11:24:06;51.67;;;29.65;;
69203;SDS011;56317;27.658;85.326;2023-04-06T11:26:40;52.70;;;30.15;;
69203;SDS011;56317;27.658;85.326;2023-04-06T11:29:10;53.08;;;31.25;;
69203;SDS011;56317;27.658;85.326;2023-04-06T11:31:45;57.00;;;31.77;;
69203;SDS011;56317;27.658;85.326;2023-04-06T11:34:18;50.35;;;32.97;;
69203;SDS011;56317;27.658;85.326;2023-04-06T11:36:48;60.95;;;32.67;;
69203;SDS011;56317;27.658;85.326;2023-04-06T11:39:20;61.38;;;35.08;;
69203;SDS011;56317;27.658;85.326;2023-04-06T11:41:53;51.97;;;35.88;;
69203;SDS011;56317;27.658;85.326;2023-04-06T11:45:06;74.50;;;39.45;;
69203;SDS011;56317;27.658;85.326;2023-04-06T11:47:16;70.85;;;42.13;;
69203;SDS011;56317;27.658;85.326;2023-04-06T11:49:44;81.32;;;42.95;;
69203;SDS011;56317;27.658;85.326;2023-04-06T11:54:45;59.35;;;40.97;;
69203;SDS011;56317;27.658;85.326;2023-04-06T11:57:13;68.55;;;42.05;;
69203;SDS011;56317;27.658;85.326;2023-04-06T11:59:42;70.30;;;42.88;;
69203;SDS011;56317;27.658;85.326;2023-04-06T12:02:10;69.68;;;44.13;;
69203;SDS011;56317;27.658;85.326;2023-04-06T12:04:38;77.38;;;42.72;;
69203;SDS011;56317;27.658;85.326;2023-04-06T12:07:05;76.93;;;43.90;;
69203;SDS011;56317;27.658;85.326;2023-04-06T12:09:33;85.63;;;47.38;;
69203;SDS011;56317;27.658;85.326;2023-04-06T12:12:04;82.47;;;46.42;;
69203;SDS011;56317;27.658;85.326;2023-04-06T12:14:31;87.43;;;48.45;;
69203;SDS011;56317;27.658;85.326;2023-04-06T12:16:58;90.82;;;50.13;;
69203;SDS011;56317;27.658;85.326;2023-04-06T12:19:26;94.32;;;51.22;;
69203;SDS011;56317;27.658;85.326;2023-04-06T12:21:54;84.65;;;49.35;;
69203;SDS011;56317;27.658;85.326;2023-04-06T12:24:22;84.53;;;48.17;;
69203;SDS011;56317;27.658;85.326;2023-04-06T12:26:49;85.90;;;50.03;;
69203;SDS011;56317;27.658;85.326;2023-04-06T12:29:16;110.32;;;53.80;;
69203;SDS011;56317;27.658;85.326;2023-04-06T12:31:44;95.13;;;53.47;;
69203;SDS011;56317;27.658;85.326;2023-04-06T12:34:11;94.28;;;53.53;;
69203;SDS011;56317;27.658;85.326;2023-04-06T12:36:39;79.72;;;45.60;;
69203;SDS011;56317;27.658;85.326;2023-04-06T12:39:06;85.40;;;48.53;;
69203;SDS011;56317;27.658;85.326;2023-04-06T12:41:33;92.07;;;51.08;;
69203;SDS011;56317;27.658;85.326;2023-04-06T12:44:01;98.47;;;50.72;;
69203;SDS011;56317;27.658;85.326;2023-04-06T12:46:29;99.43;;;53.72;;
69203;SDS011;56317;27.658;85.326;2023-04-06T12:48:56;124.13;;;67.43;;
69203;SDS011;56317;27.658;85.326;2023-04-06T12:51:26;120.32;;;66.20;;
69203;SDS011;56317;27.658;85.326;2023-04-06T12:53:54;105.18;;;60.20;;
69203;SDS011;56317;27.658;85.326;2023-04-06T12:56:22;94.45;;;54.28;;
69203;SDS011;56317;27.658;85.326;2023-04-06T12:58:50;92.10;;;53.90;;
69203;SDS011;56317;27.658;85.326;2023-04-06T13:01:18;92.18;;;51.90;;
69203;SDS011;56317;27.658;85.326;2023-04-06T13:03:48;91.65;;;53.63;;
69203;SDS011;56317;27.658;85.326;2023-04-06T13:06:15;104.35;;;60.28;;
69203;SDS011;56317;27.658;85.326;2023-04-06T13:08:43;102.60;;;60.50;;
69203;SDS011;56317;27.658;85.326;2023-04-06T13:11:12;109.68;;;60.00;;
69203;SDS011;56317;27.658;85.326;2023-04-06T13:13:43;117.80;;;60.80;;
69203;SDS011;56317;27.658;85.326;2023-04-06T13:16:10;90.60;;;54.08;;
69203;SDS011;56317;27.658;85.326;2023-04-06T13:18:37;84.78;;;52.80;;
69203;SDS011;56317;27.658;85.326;2023-04-06T13:21:05;94.60;;;57.13;;
69203;SDS011;56317;27.658;85.326;2023-04-06T13:23:33;117.07;;;61.10;;
69203;SDS011;56317;27.658;85.326;2023-04-06T13:26:01;102.15;;;62.60;;
69203;SDS011;56317;27.658;85.326;2023-04-06T13:28:31;107.95;;;62.97;;
69203;SDS011;56317;27.658;85.326;2023-04-06T13:31:01;110.82;;;63.88;;
69203;SDS011;56317;27.658;85.326;2023-04-06T13:33:29;90.03;;;59.20;;
69203;SDS011;56317;27.658;85.326;2023-04-06T13:35:57;99.30;;;59.53;;
69203;SDS011;56317;27.658;85.326;2023-04-06T13:38:26;94.90;;;56.92;;
69203;SDS011;56317;27.658;85.326;2023-04-06T13:40:54;93.57;;;59.97;;
69203;SDS011;56317;27.658;85.326;2023-04-06T13:43:21;98.60;;;61.03;;
69203;SDS011;56317;27.658;85.326;2023-04-06T13:45:52;107.53;;;61.20;;
69203;SDS011;56317;27.658;85.326;2023-04-06T13:48:25;96.43;;;62.75;;
69203;SDS011;56317;27.658;85.326;2023-04-06T13:50:52;95.15;;;63.97;;
69203;SDS011;56317;27.658;85.326;2023-04-06T13:53:20;105.82;;;64.38;;
69203;SDS011;56317;27.658;85.326;2023-04-06T13:55:54;101.85;;;64.85;;
69203;SDS011;56317;27.658;85.326;2023-04-06T13:58:21;103.68;;;64.75;;
69203;SDS011;56317;27.658;85.326;2023-04-06T14:00:49;108.70;;;65.93;;
69203;SDS011;56317;27.658;85.326;2023-04-06T14:03:16;94.03;;;62.78;;
69203;SDS011;56317;27.658;85.326;2023-04-06T14:05:44;94.82;;;62.85;;
69203;SDS011;56317;27.658;85.326;2023-04-06T14:08:11;101.80;;;64.07;;
69203;SDS011;56317;27.658;85.326;2023-04-06T14:10:39;115.22;;;68.32;;
69203;SDS011;56317;27.658;85.326;2023-04-06T14:13:07;108.25;;;68.72;;
69203;SDS011;56317;27.658;85.326;2023-04-06T14:15:35;123.22;;;71.18;;
69203;SDS011;56317;27.658;85.326;2023-04-06T14:18:05;122.05;;;70.47;;
69203;SDS011;56317;27.658;85.326;2023-04-06T14:20:34;147.50;;;75.95;;
69203;SDS011;56317;27.658;85.326;2023-04-06T14:23:01;143.43;;;76.43;;
69203;SDS011;56317;27.658;85.326;2023-04-06T14:25:29;129.32;;;74.00;;